createdAt,value
2019-06-27T00:00:44.415Z,1.90
2019-06-27T00:03:25.360Z,2.40
2019-06-27T00:06:06.325Z,2.12
2019-06-27T00:08:46.979Z,2.33
2019-06-27T00:11:27.488Z,2.00
2019-06-27T00:14:08.763Z,2.40
2019-06-27T00:16:49.324Z,3.85
2019-06-27T00:19:29.697Z,1.75
2019-06-27T00:22:10.584Z,2.83
2019-06-27T00:24:51.244Z,2.20
2019-06-27T00:27:32.084Z,2.15
2019-06-27T00:30:12.644Z,2.85
2019-06-27T00:32:53.103Z,2.27
2019-06-27T00:35:34.308Z,1.87
2019-06-27T00:38:14.808Z,1.65
2019-06-27T00:40:55.484Z,2.58
2019-06-27T00:43:36.136Z,2.10
2019-06-27T00:46:16.873Z,2.15
2019-06-27T00:48:57.380Z,2.47
2019-06-27T00:51:37.956Z,2.02
2019-06-27T00:54:18.880Z,2.55
2019-06-27T00:57:12.912Z,1.95
2019-06-27T00:59:42.169Z,1.85
2019-06-27T01:02:22.793Z,2.20
2019-06-27T01:05:03.733Z,2.20
2019-06-27T01:07:44.212Z,2.85
2019-06-27T01:10:25.141Z,2.20
2019-06-27T01:13:05.551Z,1.98
2019-06-27T01:15:46.529Z,2.08
2019-06-27T01:18:26.984Z,1.90
2019-06-27T01:21:07.789Z,2.17
2019-06-27T01:23:48.596Z,1.85
2019-06-27T01:26:29.361Z,2.62
2019-06-27T01:29:10.190Z,1.80
2019-06-27T01:31:50.653Z,1.35
2019-06-27T01:34:31.188Z,2.75
2019-06-27T01:37:12.011Z,2.25
2019-06-27T01:39:52.826Z,2.42
2019-06-27T01:42:33.422Z,1.80
2019-06-27T01:45:34.079Z,2.10
2019-06-27T01:48:14.996Z,1.85
2019-06-27T01:50:55.474Z,2.70
2019-06-27T01:53:36.130Z,2.10
2019-06-27T01:56:16.791Z,1.90
2019-06-27T01:58:57.356Z,3.05
2019-06-27T02:01:38.269Z,1.77
2019-06-27T02:04:18.861Z,1.57
2019-06-27T02:06:59.281Z,1.45
2019-06-27T02:09:39.756Z,1.62
2019-06-27T02:12:20.630Z,1.80
2019-06-27T02:15:01.211Z,1.95
2019-06-27T02:17:41.653Z,1.85
2019-06-27T02:20:23.012Z,2.22
2019-06-27T02:23:03.785Z,1.92
2019-06-27T02:25:44.688Z,1.50
2019-06-27T02:28:25.440Z,2.30
2019-06-27T02:31:06.476Z,1.77
2019-06-27T02:33:47.634Z,1.92
2019-06-27T02:36:28.391Z,1.40
2019-06-27T02:39:09.125Z,1.50
2019-06-27T02:41:49.722Z,1.75
2019-06-27T02:44:30.354Z,1.98
2019-06-27T02:47:10.802Z,1.80
2019-06-27T02:49:51.495Z,1.75
2019-06-27T02:52:31.833Z,1.87
2019-06-27T02:55:12.813Z,1.82
2019-06-27T02:57:53.756Z,2.95
2019-06-27T03:00:34.809Z,1.80
2019-06-27T03:03:15.649Z,2.20
2019-06-27T03:05:56.080Z,1.50
2019-06-27T03:08:36.957Z,1.90
2019-06-27T03:11:17.506Z,1.87
2019-06-27T03:13:58.020Z,2.05
2019-06-27T03:16:38.614Z,2.45
2019-06-27T03:19:19.494Z,1.35
2019-06-27T03:22:04.197Z,1.85
2019-06-27T03:24:42.321Z,2.30
2019-06-27T03:27:23.230Z,1.95
2019-06-27T03:30:03.653Z,2.02
2019-06-27T03:32:43.886Z,1.82
2019-06-27T03:35:24.905Z,1.32
2019-06-27T03:38:05.665Z,1.30
2019-06-27T03:40:46.568Z,1.82
2019-06-27T03:43:27.173Z,1.57
2019-06-27T03:46:08.029Z,1.10
2019-06-27T03:48:48.991Z,1.52
2019-06-27T03:51:29.827Z,1.55
2019-06-27T03:54:10.496Z,1.30
2019-06-27T03:56:51.010Z,1.42
2019-06-27T03:59:31.447Z,1.20
2019-06-27T04:02:12.325Z,1.40
2019-06-27T04:04:52.794Z,1.82
2019-06-27T04:07:33.332Z,1.32
2019-06-27T04:10:17.375Z,1.50
2019-06-27T04:12:56.875Z,2.85
2019-06-27T04:18:21.701Z,2.25
2019-06-27T04:21:02.430Z,1.75
2019-06-27T04:23:43.063Z,1.90
2019-06-27T04:26:23.945Z,1.37
2019-06-27T04:29:04.658Z,2.20
2019-06-27T04:31:45.409Z,1.30
2019-06-27T04:34:26.316Z,1.40
2019-06-27T04:37:06.843Z,1.60
2019-06-27T04:39:47.276Z,1.00
2019-06-27T04:42:27.637Z,1.30
2019-06-27T04:45:08.240Z,1.15
2019-06-27T04:47:48.955Z,1.27
2019-06-27T04:50:29.395Z,1.60
2019-06-27T04:53:09.788Z,1.37
2019-06-27T04:55:50.250Z,1.15
2019-06-27T04:58:31.016Z,1.67
2019-06-27T05:01:11.195Z,2.20
2019-06-27T05:03:52.005Z,1.32
2019-06-27T05:06:33.129Z,1.10
2019-06-27T05:09:14.172Z,1.30
2019-06-27T05:11:54.608Z,1.52
2019-06-27T05:14:35.208Z,1.20
2019-06-27T05:17:15.800Z,1.75
2019-06-27T05:19:56.859Z,1.57
2019-06-27T05:22:37.836Z,1.70
2019-06-27T05:25:18.381Z,0.98
2019-06-27T05:27:59.012Z,1.52
2019-06-27T05:30:39.782Z,1.00
2019-06-27T05:33:20.262Z,1.30
2019-06-27T05:36:02.485Z,1.10
2019-06-27T05:38:43.283Z,0.90
2019-06-27T05:41:23.756Z,1.20
2019-06-27T05:44:04.177Z,2.12
2019-06-27T05:46:45.048Z,1.10
2019-06-27T05:49:25.992Z,1.45
2019-06-27T05:52:06.713Z,1.57
2019-06-27T05:54:47.465Z,0.90
2019-06-27T05:57:28.321Z,1.52
2019-06-27T06:00:26.156Z,1.30
2019-06-27T06:02:51.186Z,0.93
2019-06-27T06:05:31.700Z,1.12
2019-06-27T06:08:12.137Z,1.27
2019-06-27T06:10:52.821Z,1.17
2019-06-27T06:13:33.435Z,1.25
2019-06-27T06:16:13.927Z,1.20
2019-06-27T06:18:54.605Z,1.10
2019-06-27T06:21:35.698Z,0.80
2019-06-27T06:24:16.311Z,0.90
2019-06-27T06:26:57.304Z,1.30
2019-06-27T06:29:38.083Z,1.45
2019-06-27T06:32:18.641Z,0.80
2019-06-27T06:34:59.299Z,0.80
2019-06-27T06:37:39.840Z,0.90
2019-06-27T06:40:20.547Z,1.03
2019-06-27T06:43:00.987Z,0.80
2019-06-27T06:45:41.949Z,0.90
2019-06-27T06:48:22.814Z,0.80
2019-06-27T06:51:03.822Z,1.03
2019-06-27T06:53:45.088Z,0.70
2019-06-27T06:56:26.049Z,1.03
2019-06-27T06:59:06.292Z,0.90
2019-06-27T07:01:46.925Z,1.07
2019-06-27T07:04:27.979Z,0.93
2019-06-27T07:07:08.758Z,1.27
2019-06-27T07:09:49.583Z,1.10
2019-06-27T07:12:30.102Z,0.80
2019-06-27T07:15:10.653Z,1.00
2019-06-27T07:17:51.254Z,1.40
2019-06-27T07:20:32.136Z,0.90
2019-06-27T07:23:12.503Z,0.93
2019-06-27T07:25:52.886Z,0.90
2019-06-27T07:28:33.458Z,1.03
2019-06-27T07:31:18.173Z,0.90
2019-06-27T07:33:56.737Z,0.90
2019-06-27T07:36:37.467Z,0.90
2019-06-27T07:39:18.275Z,0.97
2019-06-27T07:41:58.956Z,0.90
2019-06-27T07:44:39.577Z,0.80
2019-06-27T07:47:20.146Z,1.33
2019-06-27T07:50:00.560Z,1.20
2019-06-27T07:52:41.416Z,1.17
2019-06-27T07:55:21.957Z,1.50
2019-06-27T07:58:02.643Z,0.90
2019-06-27T08:00:43.685Z,1.00
2019-06-27T08:03:24.167Z,0.90
2019-06-27T08:06:04.765Z,0.90
2019-06-27T08:08:45.711Z,1.40
2019-06-27T08:11:26.121Z,1.00
2019-06-27T08:14:06.835Z,1.20
2019-06-27T08:16:47.915Z,0.77
2019-06-27T08:19:28.675Z,1.00
2019-06-27T08:22:09.191Z,1.00
2019-06-27T08:24:50.248Z,1.20
2019-06-27T08:27:30.863Z,0.80
2019-06-27T08:30:11.359Z,0.90
2019-06-27T08:32:51.799Z,0.97
2019-06-27T08:35:33.612Z,1.13
2019-06-27T08:38:14.791Z,1.27
2019-06-27T08:40:55.372Z,1.13
2019-06-27T08:43:36.010Z,1.13
2019-06-27T08:46:16.504Z,1.47
2019-06-27T08:48:57.041Z,1.00
2019-06-27T08:51:37.636Z,0.80
2019-06-27T08:54:18.713Z,1.30
2019-06-27T08:56:59.571Z,1.10
2019-06-27T08:59:40.428Z,0.97
2019-06-27T09:02:21.048Z,0.90
2019-06-27T09:05:02.030Z,1.27
2019-06-27T09:07:42.498Z,1.10
2019-06-27T09:10:23.199Z,1.00
2019-06-27T09:13:04.077Z,1.13
2019-06-27T09:15:44.757Z,1.03
2019-06-27T09:18:25.547Z,1.10
2019-06-27T09:21:06.339Z,0.90
2019-06-27T09:23:47.176Z,0.97
2019-06-27T09:26:27.933Z,1.07
2019-06-27T09:29:08.683Z,1.50
2019-06-27T09:31:49.431Z,1.13
2019-06-27T09:34:30.407Z,0.90
2019-06-27T09:37:11.137Z,0.80
2019-06-27T09:39:51.870Z,1.20
2019-06-27T09:42:32.691Z,1.07
2019-06-27T09:45:13.451Z,0.80
2019-06-27T09:47:54.636Z,1.50
2019-06-27T09:50:35.604Z,0.97
2019-06-27T09:53:16.149Z,0.90
2019-06-27T09:55:56.724Z,1.00
2019-06-27T09:58:37.380Z,1.40
2019-06-27T10:01:18.148Z,1.63
2019-06-27T10:03:58.711Z,1.00
2019-06-27T10:06:39.152Z,1.00
2019-06-27T10:09:19.612Z,0.80
2019-06-27T10:12:00.316Z,0.80
2019-06-27T10:14:41.532Z,0.90
2019-06-27T10:17:22.029Z,0.70
2019-06-27T10:20:02.629Z,0.90
2019-06-27T10:22:43.318Z,1.00
2019-06-27T10:25:24.063Z,1.10
2019-06-27T10:28:04.646Z,0.90
2019-06-27T10:30:48.935Z,0.80
2019-06-27T10:33:27.946Z,0.90
2019-06-27T10:36:08.708Z,0.83
2019-06-27T10:38:49.087Z,0.80
2019-06-27T10:41:29.807Z,1.50
2019-06-27T10:44:10.551Z,0.93
2019-06-27T10:46:51.164Z,0.90
2019-06-27T10:49:31.962Z,0.90
2019-06-27T10:52:12.666Z,0.87
2019-06-27T10:54:53.018Z,0.93
2019-06-27T10:57:33.474Z,0.90
2019-06-27T11:00:14.149Z,0.90
2019-06-27T11:02:54.861Z,0.90
2019-06-27T11:05:35.275Z,1.00
2019-06-27T11:08:16.240Z,1.00
2019-06-27T11:10:56.910Z,1.00
2019-06-27T11:13:37.940Z,0.90
2019-06-27T11:16:18.495Z,1.10
2019-06-27T11:18:59.386Z,0.90
2019-06-27T11:21:40.174Z,0.70
2019-06-27T11:24:21.085Z,0.80
2019-06-27T11:27:01.625Z,0.80
2019-06-27T11:29:42.099Z,0.90
2019-06-27T11:32:22.790Z,1.00
2019-06-27T11:35:03.506Z,0.70
2019-06-27T11:37:44.136Z,0.80
2019-06-27T11:40:24.858Z,0.83
2019-06-27T11:43:05.560Z,1.03
2019-06-27T11:45:46.183Z,0.70
2019-06-27T11:48:26.628Z,0.80
2019-06-27T11:51:07.233Z,0.80
2019-06-27T11:53:48.128Z,1.00
2019-06-27T11:56:28.596Z,0.97
2019-06-27T11:59:09.345Z,0.90
2019-06-27T12:01:50.380Z,0.70
2019-06-27T12:04:30.921Z,1.20
2019-06-27T12:07:11.367Z,1.00
2019-06-27T12:09:52.021Z,0.70
2019-06-27T12:12:32.481Z,1.00
2019-06-27T12:15:12.795Z,0.97
2019-06-27T12:17:53.147Z,0.90
2019-06-27T12:20:33.539Z,0.73
2019-06-27T12:23:13.971Z,0.90
2019-06-27T12:25:54.531Z,0.90
2019-06-27T12:28:35.328Z,0.83
2019-06-27T12:31:20.578Z,0.80
2019-06-27T12:34:06.947Z,0.70
2019-06-27T12:36:41.403Z,0.97
2019-06-27T12:39:22.596Z,0.97
2019-06-27T12:42:03.333Z,0.73
2019-06-27T12:44:43.886Z,0.73
2019-06-27T12:47:24.448Z,0.70
2019-06-27T12:50:05.048Z,0.70
2019-06-27T12:52:45.632Z,0.70
2019-06-27T12:55:26.780Z,0.80
2019-06-27T12:58:07.551Z,0.97
2019-06-27T13:00:48.160Z,0.70
2019-06-27T13:03:28.748Z,0.70
2019-06-27T13:06:09.342Z,1.10
2019-06-27T13:08:50.380Z,0.70
2019-06-27T13:11:30.912Z,0.80
2019-06-27T13:14:11.657Z,1.00
2019-06-27T13:16:52.276Z,0.70
2019-06-27T13:19:33.156Z,0.70
2019-06-27T13:22:13.678Z,0.80
2019-06-27T13:24:54.559Z,0.80
2019-06-27T13:27:35.047Z,0.73
2019-06-27T13:30:15.380Z,0.80
2019-06-27T13:32:55.779Z,0.70
2019-06-27T13:35:35.954Z,0.70
2019-06-27T13:38:17.010Z,1.00
2019-06-27T13:41:01.884Z,0.70
2019-06-27T13:43:40.556Z,0.70
2019-06-27T13:46:20.933Z,0.70
2019-06-27T13:49:01.500Z,0.83
2019-06-27T13:51:41.913Z,0.80
2019-06-27T13:54:22.900Z,0.80
2019-06-27T13:57:03.928Z,1.40
2019-06-27T13:59:45.016Z,0.80
2019-06-27T14:02:25.544Z,0.90
2019-06-27T14:05:06.515Z,1.67
2019-06-27T14:07:47.155Z,0.83
2019-06-27T14:10:27.700Z,0.70
2019-06-27T14:13:08.306Z,0.90
2019-06-27T14:15:49.060Z,0.70
2019-06-27T14:18:29.371Z,0.80
2019-06-27T14:21:09.943Z,0.97
2019-06-27T14:23:50.835Z,0.93
2019-06-27T14:26:31.583Z,0.90
2019-06-27T14:29:12.733Z,0.80
2019-06-27T14:31:53.040Z,0.80
2019-06-27T14:34:34.136Z,0.77
2019-06-27T14:37:15.224Z,0.80
2019-06-27T14:39:56.746Z,0.80
2019-06-27T14:42:37.846Z,0.83
2019-06-27T14:45:18.349Z,0.90
2019-06-27T14:47:58.801Z,0.70
2019-06-27T14:50:39.440Z,0.80
2019-06-27T14:53:19.671Z,1.73
2019-06-27T14:56:00.463Z,0.70
2019-06-27T14:58:41.499Z,0.80
2019-06-27T15:01:22.423Z,0.90
2019-06-27T15:04:03.013Z,1.10
2019-06-27T15:06:43.830Z,0.70
2019-06-27T15:09:24.793Z,0.77
2019-06-27T15:12:05.672Z,1.57
2019-06-27T15:14:49.511Z,0.90
2019-06-27T15:17:28.927Z,0.97
2019-06-27T15:20:09.570Z,1.27
2019-06-27T15:22:53.423Z,0.90
2019-06-27T15:25:34.187Z,1.00
2019-06-27T15:28:14.679Z,1.07
2019-06-27T15:30:54.926Z,0.90
2019-06-27T15:33:35.878Z,1.00
2019-06-27T15:36:16.846Z,1.03
2019-06-27T15:38:57.865Z,0.97
2019-06-27T15:41:38.254Z,0.90
2019-06-27T15:44:20.739Z,0.80
2019-06-27T15:47:01.092Z,1.00
2019-06-27T15:49:41.664Z,0.80
2019-06-27T15:52:22.467Z,0.83
2019-06-27T15:55:03.302Z,1.00
2019-06-27T15:57:44.324Z,2.07
2019-06-27T16:00:25.104Z,0.70
2019-06-27T16:03:05.524Z,0.73
2019-06-27T16:05:46.349Z,0.90
2019-06-27T16:08:27.579Z,1.23
2019-06-27T16:11:08.319Z,1.10
2019-06-27T16:13:48.934Z,1.00
2019-06-27T16:16:29.933Z,0.70
2019-06-27T16:19:10.522Z,0.80
2019-06-27T16:21:51.432Z,1.13
2019-06-27T16:24:32.161Z,0.90
2019-06-27T16:27:12.684Z,0.80
2019-06-27T16:29:53.423Z,1.00
2019-06-27T16:32:33.918Z,0.83
2019-06-27T16:35:14.815Z,0.70
2019-06-27T16:37:55.199Z,0.87
2019-06-27T16:40:36.102Z,1.00
2019-06-27T16:43:16.627Z,1.03
2019-06-27T16:45:57.104Z,0.80
2019-06-27T16:48:37.946Z,0.83
2019-06-27T16:51:20.477Z,1.20
2019-06-27T16:54:01.667Z,0.90
2019-06-27T16:56:42.092Z,0.90
2019-06-27T16:59:22.487Z,0.90
2019-06-27T17:02:06.045Z,0.90
2019-06-27T17:04:45.772Z,0.87
2019-06-27T17:07:26.254Z,0.80
2019-06-27T17:10:07.364Z,1.00
2019-06-27T17:12:47.996Z,0.80
2019-06-27T17:15:28.722Z,0.97
2019-06-27T17:18:09.479Z,1.13
2019-06-27T17:20:50.299Z,1.10
2019-06-27T17:23:31.140Z,1.47
2019-06-27T17:26:12.185Z,0.70
2019-06-27T17:28:52.375Z,0.90
2019-06-27T17:31:32.871Z,1.10
2019-06-27T17:34:14.315Z,1.20
2019-06-27T17:36:57.937Z,0.90
2019-06-27T17:39:37.580Z,1.00
2019-06-27T17:42:18.511Z,0.70
2019-06-27T17:44:59.470Z,0.90
2019-06-27T17:47:40.037Z,0.70
2019-06-27T17:50:20.713Z,0.80
2019-06-27T17:53:01.637Z,0.80
2019-06-27T17:55:42.428Z,1.20
2019-06-27T17:58:22.841Z,0.80
2019-06-27T18:01:03.584Z,0.90
2019-06-27T18:03:44.283Z,1.23
2019-06-27T18:06:24.973Z,1.20
2019-06-27T18:09:05.483Z,0.80
2019-06-27T18:11:45.875Z,1.57
2019-06-27T18:14:26.647Z,1.00
2019-06-27T18:17:07.401Z,0.80
2019-06-27T18:19:48.273Z,1.13
2019-06-27T18:22:29.216Z,0.90
2019-06-27T18:25:10.131Z,0.80
2019-06-27T18:27:51.102Z,0.83
2019-06-27T18:30:32.330Z,1.50
2019-06-27T18:33:13.023Z,1.00
2019-06-27T18:35:53.311Z,1.00
2019-06-27T18:38:34.483Z,1.30
2019-06-27T18:41:15.011Z,0.83
2019-06-27T18:43:55.435Z,1.33
2019-06-27T18:46:36.437Z,1.00
2019-06-27T18:49:16.872Z,0.70
2019-06-27T18:51:57.357Z,1.00
2019-06-27T18:54:38.003Z,1.00
2019-06-27T18:57:18.771Z,0.90
2019-06-27T18:59:59.508Z,0.90
2019-06-27T19:02:40.275Z,1.05
2019-06-27T19:05:20.721Z,1.15
2019-06-27T19:08:01.494Z,0.80
2019-06-27T19:10:42.303Z,0.95
2019-06-27T19:13:22.923Z,0.85
2019-06-27T19:16:03.607Z,0.90
2019-06-27T19:18:44.862Z,0.90
2019-06-27T19:24:30.988Z,0.90
2019-06-27T19:27:11.960Z,0.90
2019-06-27T19:29:52.596Z,0.70
2019-06-27T19:32:33.404Z,0.70
2019-06-27T19:35:14.091Z,1.17
2019-06-27T19:38:02.156Z,0.90
2019-06-27T19:40:37.131Z,1.05
2019-06-27T19:43:27.338Z,1.00
2019-06-27T19:46:00.273Z,0.80
2019-06-27T19:48:40.570Z,1.37
2019-06-27T19:51:20.908Z,0.90
2019-06-27T19:54:01.663Z,1.00
2019-06-27T19:56:42.813Z,0.70
2019-06-27T19:59:25.357Z,0.95
2019-06-27T20:02:05.915Z,0.90
2019-06-27T20:04:46.947Z,0.70
2019-06-27T20:07:27.960Z,0.80
2019-06-27T20:10:11.507Z,0.90
2019-06-27T20:12:50.627Z,0.70
2019-06-27T20:15:31.172Z,1.00
2019-06-27T20:18:11.869Z,1.75
2019-06-27T20:20:52.500Z,0.80
2019-06-27T20:23:33.000Z,0.80
2019-06-27T20:26:13.960Z,0.70
2019-06-27T20:28:54.562Z,1.12
2019-06-27T20:31:36.060Z,0.80
2019-06-27T20:34:17.256Z,1.77
2019-06-27T20:36:57.620Z,1.02
2019-06-27T20:39:38.699Z,1.00
2019-06-27T20:42:19.048Z,1.92
2019-06-27T20:44:59.485Z,0.85
2019-06-27T20:47:40.123Z,1.00
2019-06-27T20:50:21.292Z,0.90
2019-06-27T20:53:01.956Z,1.07
2019-06-27T20:55:42.816Z,0.98
2019-06-27T20:58:23.314Z,0.80
2019-06-27T21:01:03.843Z,0.72
2019-06-27T21:03:44.987Z,0.88
2019-06-27T21:06:25.470Z,0.90
2019-06-27T21:09:06.011Z,1.20
2019-06-27T21:11:46.815Z,0.78
2019-06-27T21:14:27.569Z,0.88
2019-06-27T21:17:08.243Z,0.80
2019-06-27T21:19:49.303Z,0.70
2019-06-27T21:22:30.200Z,0.70
2019-06-27T21:25:11.275Z,1.20
2019-06-27T21:27:51.745Z,0.80
2019-06-27T21:30:32.268Z,0.90
2019-06-27T21:33:12.763Z,0.70
2019-06-27T21:35:53.770Z,0.70
2019-06-27T21:38:34.746Z,0.80
2019-06-27T21:41:18.686Z,0.90
2019-06-27T21:43:57.892Z,0.90
2019-06-27T21:46:38.478Z,0.93
2019-06-27T21:49:18.629Z,1.00
2019-06-27T21:51:59.666Z,0.85
2019-06-27T21:54:40.341Z,0.80
2019-06-27T21:57:20.748Z,0.90
2019-06-27T22:00:01.454Z,0.70
2019-06-27T22:02:41.640Z,0.90
2019-06-27T22:05:22.285Z,0.80
2019-06-27T22:08:02.805Z,1.02
2019-06-27T22:10:43.563Z,0.75
2019-06-27T22:13:24.224Z,0.80
2019-06-27T22:16:04.562Z,0.70
2019-06-27T22:18:44.920Z,0.80
2019-06-27T22:21:25.610Z,0.85
2019-06-27T22:24:05.940Z,0.95
2019-06-27T22:26:46.824Z,0.90
2019-06-27T22:29:27.557Z,0.85
2019-06-27T22:32:07.888Z,1.00
2019-06-27T22:37:31.855Z,0.80
2019-06-27T22:40:33.367Z,0.95
2019-06-27T22:46:38.824Z,0.75
2019-06-27T22:49:18.953Z,0.70
2019-06-27T22:52:20.282Z,0.80
2019-06-27T22:55:03.109Z,0.90
2019-06-27T22:57:43.801Z,0.90
2019-06-27T23:00:24.441Z,0.80
2019-06-27T23:03:05.642Z,1.07
2019-06-27T23:05:46.011Z,1.32
2019-06-27T23:08:26.580Z,0.90
2019-06-27T23:11:07.516Z,0.95
2019-06-27T23:13:48.181Z,1.20
2019-06-27T23:16:28.867Z,0.90
2019-06-27T23:19:11.584Z,0.80
2019-06-27T23:21:51.544Z,0.95
2019-06-27T23:24:32.427Z,0.98
2019-06-27T23:27:13.240Z,0.93
2019-06-27T23:29:53.835Z,0.80
2019-06-27T23:32:34.773Z,0.70
2019-06-27T23:35:15.355Z,0.80
2019-06-27T23:37:56.124Z,0.90
2019-06-27T23:40:36.900Z,1.12
2019-06-27T23:43:17.784Z,0.90
2019-06-27T23:45:58.478Z,0.75
2019-06-27T23:48:39.312Z,0.80
2019-06-27T23:51:19.970Z,0.90
2019-06-27T23:54:00.280Z,1.00
2019-06-27T23:56:40.844Z,0.80
2019-06-27T23:59:21.375Z,0.80
